Time;durP1;ratioP1;P1;durP2;ratioP2;P2;SDS_P1;SDS_P2;PMS_P1;PMS_P2;Temp;Humidity;BMP_temperature;BMP_pressure;BME280_temperature;BME280_humidity;BME280_pressure;Samples;Min_cycle;Max_cycle;Signal;HPM_P1;HPM_P2
2021/05/09 00:00:18;;;;;;;6.47;3.90;;;;;;;10.56;79.26;95722.97;1052702;28;20113;-65
2021/05/09 00:00:48;;;;;;;5.70;3.42;;;;;;;10.52;79.07;95719.25;1048473;28;20496;-65
2021/05/09 00:01:20;;;;;;;5.83;3.83;;;;;;;10.53;79.17;95725.41;1048836;28;20127;-65
2021/05/09 00:01:50;;;;;;;7.30;3.55;;;;;;;10.53;78.75;95728.88;1052740;28;20468;-65
2021/05/09 00:02:23;;;;;;;7.30;3.40;;;;;;;10.51;79.25;95732.91;1052796;28;20020;-65
2021/05/09 00:02:54;;;;;;;6.68;3.55;;;;;;;10.52;79.15;95729.94;1053030;28;20484;-65
2021/05/09 00:03:24;;;;;;;11.18;4.28;;;;;;;10.52;78.52;95731.81;1052894;28;20024;-65
2021/05/09 00:03:55;;;;;;;6.47;3.70;;;;;;;10.52;79.24;95737.16;1052996;28;20020;-65
2021/05/09 00:04:25;;;;;;;8.20;4.10;;;;;;;10.49;79.46;95729.69;1052973;28;20023;-65
2021/05/09 00:04:56;;;;;;;6.63;3.83;;;;;;;10.47;78.95;95721.97;1053004;28;20405;-65
2021/05/09 00:05:26;;;;;;;6.27;4.00;;;;;;;10.46;79.25;95723.03;1052720;28;20024;-65
2021/05/09 00:05:57;;;;;;;5.63;3.63;;;;;;;10.49;79.05;95729.69;1052983;28;20024;-65
2021/05/09 00:06:28;;;;;;;10.10;3.87;;;;;;;10.49;79.07;95732.34;1052942;28;20073;-65
2021/05/09 00:06:58;;;;;;;7.73;3.77;;;;;;;10.47;79.24;95727.31;1053097;28;20016;-65
2021/05/09 00:07:28;;;;;;;7.47;3.63;;;;;;;10.48;79.17;95728.09;1052991;28;20027;-65
2021/05/09 00:07:59;;;;;;;6.93;3.77;;;;;;;10.50;79.31;95728.63;1053092;28;20031;-65
2021/05/09 00:08:30;;;;;;;5.80;3.50;;;;;;;10.49;78.99;95727.00;1053110;28;20027;-65
2021/05/09 00:09:00;;;;;;;5.37;3.23;;;;;;;10.45;78.83;95726.78;1053059;28;20020;-65
2021/05/09 00:09:30;;;;;;;6.53;3.43;;;;;;;10.47;78.98;95715.81;1052932;28;20077;-65
2021/05/09 00:10:01;;;;;;;8.70;3.70;;;;;;;10.49;78.68;95729.69;1052606;28;20024;-65
2021/05/09 00:10:32;;;;;;;6.37;3.30;;;;;;;10.51;78.32;95725.69;1052665;28;20027;-65
2021/05/09 00:11:02;;;;;;;9.43;3.60;;;;;;;10.53;78.66;95725.41;1052716;28;20097;-65
2021/05/09 00:11:32;;;;;;;6.23;3.80;;;;;;;10.52;78.52;95726.47;1052649;28;20538;-65
2021/05/09 00:12:04;;;;;;;5.87;3.53;;;;;;;10.53;78.16;95723.53;1052940;28;20019;-65
2021/05/09 00:12:34;;;;;;;7.85;3.75;;;;;;;10.52;78.37;95721.94;1052603;28;20500;-65
2021/05/09 00:13:05;;;;;;;6.53;3.40;;;;;;;10.54;77.70;95718.97;1052711;28;20028;-65
2021/05/09 00:13:36;;;;;;;4.90;3.00;;;;;;;10.51;78.27;95723.00;1052711;28;20021;-65
2021/05/09 00:14:06;;;;;;;5.80;3.47;;;;;;;10.54;78.23;95724.31;1048630;28;20020;-65
2021/05/09 00:14:36;;;;;;;6.33;3.30;;;;;;;10.52;77.87;95721.13;1052722;28;20077;-65
2021/05/09 00:15:09;;;;;;;6.00;3.37;;;;;;;10.53;78.45;95714.72;1052738;28;20020;-65
2021/05/09 00:15:39;;;;;;;9.02;3.45;;;;;;;10.50;77.77;95723.28;1052582;28;20427;-65
2021/05/09 00:16:10;;;;;;;4.97;3.00;;;;;;;10.51;77.93;95714.19;1052669;28;20017;-65
2021/05/09 00:16:40;;;;;;;8.13;3.47;;;;;;;10.51;78.01;95720.34;1052734;28;20031;-65
2021/05/09 00:17:11;;;;;;;7.17;3.50;;;;;;;10.51;78.18;95714.19;1052628;28;20016;-65
2021/05/09 00:17:41;;;;;;;6.97;3.20;;;;;;;10.51;78.16;95709.66;1052442;28;20512;-65
2021/05/09 00:18:11;;;;;;;7.77;3.40;;;;;;;10.53;77.79;95717.38;1052985;28;20020;-65
2021/05/09 00:18:42;;;;;;;5.70;3.30;;;;;;;10.53;77.97;95712.03;1052993;28;20023;-65
2021/05/09 00:19:12;;;;;;;7.27;3.20;;;;;;;10.53;78.58;95717.38;1053029;28;20024;-65
2021/05/09 00:19:43;;;;;;;5.53;3.40;;;;;;;10.49;78.13;95714.44;1052905;28;20012;-65
2021/05/09 00:20:13;;;;;;;7.30;3.47;;;;;;;10.48;77.86;95709.41;1052315;28;20036;-65
2021/05/09 00:20:44;;;;;;;6.83;3.20;;;;;;;10.47;77.89;95711.28;1052620;28;20016;-65
2021/05/09 00:21:14;;;;;;;9.10;3.20;;;;;;;10.50;77.46;95718.75;1052656;28;20024;-65
2021/05/09 00:21:45;;;;;;;6.17;3.07;;;;;;;10.47;77.79;95716.63;1052623;28;20024;-65
2021/05/09 00:22:15;;;;;;;6.40;3.20;;;;;;;10.47;78.38;95710.47;1053016;28;20020;-65
2021/05/09 00:22:45;;;;;;;5.57;3.20;;;;;;;10.49;78.34;95717.13;1052595;28;20016;-65
2021/05/09 00:23:16;;;;;;;5.33;3.20;;;;;;;10.49;78.02;95711.00;1052704;28;20020;-65
2021/05/09 00:23:48;;;;;;;5.13;2.97;;;;;;;10.45;77.99;95707.28;1052662;28;20020;-65
2021/05/09 00:24:18;;;;;;;4.55;3.00;;;;;;;10.47;77.59;95705.13;1052754;28;20027;-65
2021/05/09 00:24:48;;;;;;;5.67;3.17;;;;;;;10.47;77.97;95715.81;1052966;28;20456;-65
2021/05/09 00:25:19;;;;;;;5.73;2.90;;;;;;;10.45;77.99;95710.75;1053035;28;20016;-65
2021/05/09 00:25:49;;;;;;;6.13;3.30;;;;;;;10.47;78.07;95713.16;1053039;28;20012;-65
2021/05/09 00:26:20;;;;;;;5.93;3.50;;;;;;;10.46;78.05;95706.22;1052845;28;20078;-65
2021/05/09 00:26:50;;;;;;;5.60;3.57;;;;;;;10.47;77.66;95713.16;1053013;28;20070;-65
2021/05/09 00:27:21;;;;;;;6.43;3.20;;;;;;;10.46;77.48;95708.88;1052981;28;20081;-65
2021/05/09 00:27:51;;;;;;;5.53;2.97;;;;;;;10.44;77.64;95711.84;1052949;28;20024;-65
2021/05/09 00:28:21;;;;;;;5.10;3.40;;;;;;;10.45;78.13;95709.97;1052981;28;20077;-65
2021/05/09 00:28:52;;;;;;;4.87;2.80;;;;;;;10.45;77.40;95709.97;1053038;28;20032;-65
2021/05/09 00:29:22;;;;;;;6.17;3.00;;;;;;;10.49;77.42;95708.31;1052920;28;20032;-65
2021/05/09 00:29:53;;;;;;;5.63;3.43;;;;;;;10.49;77.27;95703.75;1052964;28;20012;-65
2021/05/09 00:30:23;;;;;;;5.27;3.03;;;;;;;10.46;77.62;95707.00;1052871;28;20099;-65
2021/05/09 00:30:54;;;;;;;6.83;3.00;;;;;;;10.45;77.57;95709.97;1052946;28;20020;-65
2021/05/09 00:31:24;;;;;;;6.20;3.17;;;;;;;10.46;77.52;95708.88;1052928;28;20028;-65
2021/05/09 00:31:54;;;;;;;5.07;3.17;;;;;;;10.46;77.46;95703.53;1052962;28;20024;-65
2021/05/09 00:32:25;;;;;;;4.57;2.97;;;;;;;10.44;77.66;95703.81;1052870;28;20028;-65
2021/05/09 00:32:55;;;;;;;4.77;3.10;;;;;;;10.41;77.77;95707.03;1052987;28;20020;-65
2021/05/09 00:33:26;;;;;;;5.30;3.27;;;;;;;10.40;77.62;95708.91;1052957;28;20031;-65
2021/05/09 00:33:56;;;;;;;5.00;3.23;;;;;;;10.41;77.76;95707.84;1052866;28;20023;-65
2021/05/09 00:34:26;;;;;;;5.07;3.10;;;;;;;10.40;77.63;95702.78;1052850;28;20024;-65
2021/05/09 00:34:57;;;;;;;8.00;3.30;;;;;;;10.41;77.88;95707.03;1052856;28;20016;-65
2021/05/09 00:35:27;;;;;;;7.15;3.10;;;;;;;10.38;77.76;95713.72;1052885;28;20479;-65
2021/05/09 00:35:58;;;;;;;6.07;3.17;;;;;;;10.36;77.57;95707.84;1052670;28;20512;-65
2021/05/09 00:36:28;;;;;;;5.40;2.83;;;;;;;10.25;78.01;95703.66;1052836;28;20008;-65
2021/05/09 00:37:00;;;;;;;4.77;2.80;;;;;;;10.15;79.10;95698.31;1052856;28;20046;-65
2021/05/09 00:37:31;;;;;;;7.07;2.90;;;;;;;10.16;78.90;95706.03;1052849;28;20024;-65
2021/05/09 00:38:01;;;;;;;5.43;2.90;;;;;;;10.19;78.91;95702.03;1052955;28;20413;-65
2021/05/09 00:38:31;;;;;;;4.73;2.70;;;;;;;10.22;79.03;95708.69;1052911;28;20262;-65
2021/05/09 00:39:02;;;;;;;5.00;2.90;;;;;;;10.22;78.45;95703.34;1052999;28;20028;-65
2021/05/09 00:39:32;;;;;;;4.80;2.80;;;;;;;10.20;78.44;95703.63;1052905;28;20024;-65
2021/05/09 00:40:04;;;;;;;6.93;3.27;;;;;;;10.21;78.26;95713.25;1052864;28;20021;-64
2021/05/09 00:40:35;;;;;;;5.75;2.90;;;;;;;10.22;78.49;95706.81;1052764;28;20027;-64
2021/05/09 00:41:05;;;;;;;5.07;2.87;;;;;;;10.24;78.29;95709.28;1052892;28;20020;-64
2021/05/09 00:41:36;;;;;;;4.93;3.10;;;;;;;10.24;78.03;95704.72;1052903;28;20027;-65
2021/05/09 00:42:07;;;;;;;5.43;2.73;;;;;;;10.24;78.00;95699.38;1052917;28;20095;-66
2021/05/09 00:42:37;;;;;;;6.60;3.03;;;;;;;10.21;78.32;95699.88;1052925;28;20040;-65
2021/05/09 00:43:07;;;;;;;4.60;2.70;;;;;;;10.25;77.99;95703.66;1052871;28;20031;-65
2021/05/09 00:43:38;;;;;;;6.47;2.90;;;;;;;10.24;77.96;95704.72;1052861;28;20070;-65
2021/05/09 00:44:08;;;;;;;4.37;2.60;;;;;;;10.24;78.68;95701.25;1052546;28;20016;-65
2021/05/09 00:44:39;;;;;;;5.37;2.87;;;;;;;10.24;78.02;95702.06;1052515;28;20017;-66
2021/05/09 00:45:09;;;;;;;5.50;2.80;;;;;;;10.21;78.08;95701.75;1052648;28;20016;-65
2021/05/09 00:45:40;;;;;;;6.03;2.50;;;;;;;10.14;78.74;95699.41;1048236;28;20020;-65
2021/05/09 00:46:10;;;;;;;7.67;2.90;;;;;;;10.15;78.91;95704.47;1052646;28;20039;-65
2021/05/09 00:46:41;;;;;;;4.43;2.90;;;;;;;10.15;78.34;95703.66;1052545;28;20036;-65
2021/05/09 00:47:12;;;;;;;6.73;2.90;;;;;;;10.15;79.02;95698.31;1052656;28;20091;-65
2021/05/09 00:47:42;;;;;;;3.70;2.67;;;;;;;10.17;78.90;95701.50;1052523;28;20020;-65
2021/05/09 00:48:15;;;;;;;7.00;2.87;;;;;;;10.18;78.67;95702.28;1052663;28;20008;-65
2021/05/09 00:48:46;;;;;;;6.07;3.08;;;;;;;10.16;78.31;95700.72;1048284;28;20013;-65
2021/05/09 00:49:16;;;;;;;6.80;3.20;;;;;;;10.13;78.75;95703.13;1044634;28;20108;-65
2021/05/09 00:49:46;;;;;;;5.57;3.10;;;;;;;10.13;78.18;95705.78;1044257;28;20024;-65
2021/05/09 00:50:18;;;;;;;6.40;3.10;;;;;;;10.12;78.53;95696.97;1044726;28;20039;-65
2021/05/09 00:50:48;;;;;;;8.52;3.03;;;;;;;10.14;78.09;95694.06;1048421;28;20009;-65
2021/05/09 00:51:19;;;;;;;4.50;2.90;;;;;;;10.09;78.76;95700.22;1052645;28;20382;-65
2021/05/09 00:51:50;;;;;;;6.47;2.97;;;;;;;10.11;78.80;95699.94;1052867;28;20016;-65
2021/05/09 00:52:20;;;;;;;7.88;3.10;;;;;;;10.10;78.87;95695.66;1052970;28;20027;-65
2021/05/09 00:52:51;;;;;;;4.63;2.70;;;;;;;10.12;78.51;95699.66;1052387;28;20369;-65
2021/05/09 00:53:22;;;;;;;10.07;3.17;;;;;;;10.11;78.76;95697.25;1052610;28;20016;-65
2021/05/09 00:53:53;;;;;;;5.03;2.88;;;;;;;10.10;78.71;95687.66;1052531;28;20019;-65
2021/05/09 00:54:23;;;;;;;5.43;3.10;;;;;;;10.12;78.48;95696.19;1048665;28;20048;-66
2021/05/09 00:55:01;;;;;;;5.07;2.90;;;;;;;10.08;78.52;95692.47;1048257;28;20024;-65
2021/05/09 00:55:32;;;;;;;6.45;3.22;;;;;;;10.09;78.61;95694.88;1044206;28;20439;-65
2021/05/09 00:56:02;;;;;;;4.80;2.80;;;;;;;10.07;78.56;95694.31;1040024;28;20013;-65
2021/05/09 00:56:33;;;;;;;5.27;2.90;;;;;;;10.07;78.52;95694.31;1034073;28;20069;-65
2021/05/09 00:57:03;;;;;;;6.23;3.00;;;;;;;10.07;78.83;95691.66;1035909;28;20073;-65
2021/05/09 00:57:35;;;;;;;6.57;3.00;;;;;;;10.06;78.86;95691.94;1032050;28;20033;-65
2021/05/09 00:58:06;;;;;;;5.82;2.90;;;;;;;10.06;78.85;95695.41;1036605;28;20514;-65
2021/05/09 00:58:37;;;;;;;5.82;3.05;;;;;;;10.06;78.70;95684.72;1044585;28;20512;-65
2021/05/09 00:59:07;;;;;;;5.30;3.23;;;;;;;10.03;78.87;95687.13;1044430;28;20020;-65
2021/05/09 00:59:37;;;;;;;6.37;3.30;;;;;;;10.04;79.18;95696.75;1040142;28;20034;-65
2021/05/09 01:00:09;;;;;;;4.87;2.80;;;;;;;10.03;78.74;95693.31;1036097;28;20033;-65
2021/05/09 01:00:39;;;;;;;5.10;3.10;;;;;;;10.01;79.01;95692.75;1036084;28;20427;-65
2021/05/09 01:01:12;;;;;;;4.63;2.90;;;;;;;10.04;78.87;95683.41;1040408;28;20036;-65
2021/05/09 01:01:44;;;;;;;4.35;2.70;;;;;;;10.01;79.00;95686.63;1048331;28;20550;-65
2021/05/09 01:02:14;;;;;;;5.07;3.00;;;;;;;10.00;79.16;95688.50;1048341;28;20052;-65
2021/05/09 01:02:45;;;;;;;5.03;2.90;;;;;;;10.03;79.23;95692.47;1048326;28;20028;-65
2021/05/09 01:03:16;;;;;;;5.28;2.88;;;;;;;10.00;79.11;95688.50;1048338;28;20024;-65
2021/05/09 01:03:46;;;;;;;6.60;3.00;;;;;;;10.00;79.04;95687.69;1044509;28;20025;-65
2021/05/09 01:04:17;;;;;;;5.80;2.90;;;;;;;10.01;79.24;95690.09;1044211;28;20111;-65
2021/05/09 01:04:47;;;;;;;4.77;2.83;;;;;;;10.02;79.50;95696.22;1044173;28;20342;-65
2021/05/09 01:05:17;;;;;;;5.80;2.60;;;;;;;9.99;79.03;95686.91;1044219;28;20021;-65
2021/05/09 01:05:48;;;;;;;4.20;2.70;;;;;;;10.00;79.10;95685.03;1043445;28;20014;-65
2021/05/09 01:06:18;;;;;;;5.23;2.77;;;;;;;9.96;79.40;95687.44;1047863;28;20020;-65
2021/05/09 01:06:49;;;;;;;4.83;2.87;;;;;;;9.97;79.32;95683.69;1040141;28;20572;-66
2021/05/09 01:07:19;;;;;;;7.00;3.10;;;;;;;9.98;79.11;95687.97;1040229;28;20136;-66
2021/05/09 01:07:50;;;;;;;6.70;2.70;;;;;;;9.99;78.76;95689.56;1040024;28;20021;-65
2021/05/09 01:08:20;;;;;;;4.40;2.83;;;;;;;9.98;79.00;95687.97;1040314;28;20025;-65
2021/05/09 01:08:52;;;;;;;4.77;2.87;;;;;;;9.95;78.92;95691.19;1039962;28;20036;-64
2021/05/09 01:09:22;;;;;;;4.20;2.55;;;;;;;9.93;79.23;95687.19;1035983;28;20026;-64
2021/05/09 01:09:53;;;;;;;5.57;2.77;;;;;;;9.95;79.06;95699.19;1031897;28;20035;-65
2021/05/09 01:10:23;;;;;;;8.73;3.03;;;;;;;9.97;79.06;95690.91;1032443;28;20060;-65
2021/05/09 01:10:54;;;;;;;5.40;2.83;;;;;;;9.93;79.23;95692.50;1040328;28;20371;-64
2021/05/09 01:11:24;;;;;;;4.87;2.93;;;;;;;9.92;79.62;95683.72;1044199;28;20025;-64
2021/05/09 01:11:55;;;;;;;6.57;2.70;;;;;;;9.95;79.01;95685.06;1048607;28;20457;-64
2021/05/09 01:12:25;;;;;;;6.30;2.90;;;;;;;9.90;79.10;95691.19;1048576;28;20020;-64
2021/05/09 01:12:55;;;;;;;7.30;3.00;;;;;;;9.93;79.03;95688.00;1048660;28;20051;-64
2021/05/09 01:13:26;;;;;;;5.67;2.50;;;;;;;9.94;78.97;95688.78;1048616;28;20078;-64
2021/05/09 01:13:56;;;;;;;5.53;3.10;;;;;;;9.94;79.02;95689.59;1048561;28;20020;-64
2021/05/09 01:14:27;;;;;;;6.10;3.13;;;;;;;9.95;79.00;95691.19;1048664;28;20013;-65
2021/05/09 01:14:57;;;;;;;5.43;2.80;;;;;;;9.93;78.75;95693.34;1048229;28;20024;-65
2021/05/09 01:15:28;;;;;;;4.00;2.23;;;;;;;9.91;79.25;95692.78;1048303;28;20020;-65
2021/05/09 01:16:02;;;;;;;4.97;2.60;;;;;;;9.93;79.15;95687.19;1048174;28;20052;-64
2021/05/09 01:16:32;;;;;;;4.97;2.72;;;;;;;9.88;79.47;95690.69;1048311;28;20032;-64
2021/05/09 01:17:03;;;;;;;4.57;2.50;;;;;;;9.88;79.44;95686.16;1048217;28;20028;-64
2021/05/09 01:17:33;;;;;;;4.35;2.40;;;;;;;9.87;79.43;95697.06;1048254;28;20024;-65
2021/05/09 01:18:04;;;;;;;5.30;2.90;;;;;;;9.85;79.24;95691.22;1048308;28;20020;-65
2021/05/09 01:18:34;;;;;;;4.43;2.63;;;;;;;9.82;79.93;95694.41;1044365;28;20029;-64
2021/05/09 01:19:05;;;;;;;4.10;2.70;;;;;;;9.85;79.76;95685.88;1048343;28;20025;-64
2021/05/09 01:19:36;;;;;;;4.47;2.40;;;;;;;9.82;79.35;95687.22;1048305;28;20028;-64
2021/05/09 01:20:12;;;;;;;4.20;2.70;;;;;;;9.84;79.34;95692.31;1048302;28;20023;-64
2021/05/09 01:20:43;;;;;;;6.43;2.97;;;;;;;9.86;79.09;95690.16;1048595;28;20481;-64
2021/05/09 01:21:13;;;;;;;4.70;2.57;;;;;;;9.86;79.03;95690.94;1048289;28;20020;-64
2021/05/09 01:21:45;;;;;;;4.73;2.73;;;;;;;9.87;78.89;95697.06;1048651;28;20009;-65
2021/05/09 01:22:16;;;;;;;5.75;2.72;;;;;;;9.85;79.10;95691.22;1048498;28;20084;-64
2021/05/09 01:22:46;;;;;;;6.37;2.87;;;;;;;9.80;79.80;95694.69;1048637;28;20019;-65
2021/05/09 01:23:17;;;;;;;5.67;2.60;;;;;;;9.80;79.54;95697.38;1048578;28;20031;-65
2021/05/09 01:23:47;;;;;;;5.57;2.97;;;;;;;9.83;79.24;95688.84;1048296;28;20043;-65
2021/05/09 01:24:18;;;;;;;4.50;2.53;;;;;;;9.80;79.68;95692.03;1048188;28;20401;-66
2021/05/09 01:24:48;;;;;;;5.37;2.77;;;;;;;9.80;79.66;95688.56;1048319;28;20055;-65
2021/05/09 01:25:18;;;;;;;5.70;3.03;;;;;;;9.79;79.73;95689.66;1048298;28;20021;-65
2021/05/09 01:25:49;;;;;;;4.43;2.40;;;;;;;9.75;79.44;95692.06;1048655;28;20027;-65
2021/05/09 01:26:19;;;;;;;5.10;2.83;;;;;;;9.77;79.52;95689.91;1048456;28;20024;-64
2021/05/09 01:26:50;;;;;;;5.10;2.60;;;;;;;9.77;79.70;95681.88;1048564;28;20035;-65
2021/05/09 01:27:20;;;;;;;5.60;2.30;;;;;;;9.77;79.44;95689.91;1048486;28;20021;-65
2021/05/09 01:27:50;;;;;;;5.33;2.53;;;;;;;9.78;79.57;95686.19;1048616;28;20048;-65
2021/05/09 01:28:21;;;;;;;3.83;2.33;;;;;;;9.78;79.52;95688.06;1048414;28;20029;-65
2021/05/09 01:28:51;;;;;;;6.17;2.60;;;;;;;9.77;79.75;95681.09;1048565;28;20013;-65
2021/05/09 01:29:22;;;;;;;4.60;2.73;;;;;;;9.75;79.63;95683.25;1044142;28;20051;-64
2021/05/09 01:29:52;;;;;;;5.67;2.50;;;;;;;9.75;80.01;95684.03;1044192;28;20379;-64
2021/05/09 01:30:23;;;;;;;5.83;2.60;;;;;;;9.74;80.08;95687.78;1044053;28;20492;-64
2021/05/09 01:30:53;;;;;;;5.67;2.53;;;;;;;9.71;80.12;95685.66;1044246;28;20028;-65
2021/05/09 01:31:23;;;;;;;4.67;3.00;;;;;;;9.69;80.10;95687.00;1048549;28;20381;-65
2021/05/09 01:31:54;;;;;;;7.17;2.53;;;;;;;9.67;80.15;95684.59;1048603;28;20400;-65
2021/05/09 01:32:24;;;;;;;4.03;2.43;;;;;;;9.59;80.25;95685.16;1048453;28;20017;-65
2021/05/09 01:32:55;;;;;;;6.40;2.60;;;;;;;9.60;80.53;95676.09;1048562;28;20099;-64
2021/05/09 01:33:25;;;;;;;6.20;2.53;;;;;;;9.65;80.45;95684.06;1048465;28;20035;-64
2021/05/09 01:33:56;;;;;;;3.50;2.30;;;;;;;9.63;80.11;95680.88;1048634;28;20428;-64
2021/05/09 01:34:33;;;;;;;4.93;2.60;;;;;;;9.63;80.37;95678.22;1048472;28;20381;-65
2021/05/09 01:35:04;;;;;;;5.22;2.47;;;;;;;9.64;80.34;95679.81;1048622;28;20074;-64
2021/05/09 01:35:34;;;;;;;4.60;2.70;;;;;;;9.61;80.33;95681.13;1048460;28;20028;-65
2021/05/09 01:36:05;;;;;;;5.20;2.90;;;;;;;9.62;80.01;95681.94;1048346;28;20020;-65
2021/05/09 01:36:35;;;;;;;7.43;2.93;;;;;;;9.61;80.18;95675.81;1048467;28;20013;-65
2021/05/09 01:37:06;;;;;;;4.70;2.50;;;;;;;9.58;80.24;95679.03;1048612;28;20027;-64
2021/05/09 01:37:36;;;;;;;4.73;2.90;;;;;;;9.59;80.42;95677.16;1048470;28;20047;-65
2021/05/09 01:38:07;;;;;;;4.33;2.50;;;;;;;9.49;80.91;95683.31;1048591;28;20066;-65
2021/05/09 01:38:37;;;;;;;4.20;2.20;;;;;;;9.53;80.90;95679.03;1048531;28;20017;-65
2021/05/09 01:39:07;;;;;;;6.00;3.10;;;;;;;9.48;80.99;95683.59;1048594;28;20396;-65
2021/05/09 01:39:38;;;;;;;5.53;2.50;;;;;;;9.52;80.84;95677.44;1048471;28;20021;-65
2021/05/09 01:40:11;;;;;;;5.97;2.60;;;;;;;9.53;80.78;95683.56;1048538;28;20028;-65
2021/05/09 01:40:41;;;;;;;5.07;2.80;;;;;;;9.53;80.80;95680.91;1048466;28;20025;-65
2021/05/09 01:41:11;;;;;;;3.80;2.40;;;;;;;9.52;80.94;95673.97;1048483;28;20016;-64
2021/05/09 01:41:42;;;;;;;4.70;2.70;;;;;;;9.51;80.71;95683.03;1048136;28;20025;-64
2021/05/09 01:42:12;;;;;;;5.87;2.97;;;;;;;9.52;80.92;95679.28;1048323;28;20028;-64
2021/05/09 01:42:43;;;;;;;5.03;2.43;;;;;;;9.54;80.55;95679.84;1048221;28;20024;-64
2021/05/09 01:43:13;;;;;;;3.90;2.60;;;;;;;9.55;80.63;95676.88;1048237;28;20077;-64
2021/05/09 01:43:44;;;;;;;4.80;2.40;;;;;;;9.57;80.55;95672.09;1048466;28;20078;-65
2021/05/09 01:44:14;;;;;;;4.47;2.33;;;;;;;9.56;80.71;95669.69;1048533;28;20099;-65
2021/05/09 01:44:54;;;;;;;6.17;2.57;;;;;;;9.53;80.43;95680.91;1048484;28;20021;-64
2021/05/09 01:45:25;;;;;;;4.80;2.38;;;;;;;9.54;80.44;95669.97;1048542;28;20028;-64
2021/05/09 01:45:55;;;;;;;4.87;2.50;;;;;;;9.56;80.48;95673.16;1048356;28;20505;-64
2021/05/09 01:46:25;;;;;;;3.80;2.40;;;;;;;9.58;80.55;95675.56;1048449;28;20477;-64
2021/05/09 01:46:56;;;;;;;3.67;2.43;;;;;;;9.56;80.71;95673.16;1048471;28;20033;-64
2021/05/09 01:47:27;;;;;;;3.87;2.33;;;;;;;9.57;80.67;95672.09;1048527;28;20021;-64
2021/05/09 01:47:57;;;;;;;4.00;2.47;;;;;;;9.59;80.96;95669.16;1048421;28;20028;-64
2021/05/09 01:48:27;;;;;;;5.17;2.57;;;;;;;9.62;80.35;95671.25;1048509;28;20012;-65
2021/05/09 01:48:58;;;;;;;3.80;2.30;;;;;;;9.59;80.43;95674.50;1048534;28;20382;-64
2021/05/09 01:49:28;;;;;;;5.77;2.60;;;;;;;9.59;80.31;95674.50;1048427;28;20029;-64
2021/05/09 01:49:59;;;;;;;4.70;2.40;;;;;;;9.59;80.08;95671.81;1048483;28;20025;-65
2021/05/09 01:50:29;;;;;;;5.17;2.53;;;;;;;9.60;80.37;95673.41;1048552;28;20443;-65
2021/05/09 01:51:00;;;;;;;6.37;2.50;;;;;;;9.60;80.17;95668.88;1048448;28;20090;-65
2021/05/09 01:51:30;;;;;;;5.27;2.57;;;;;;;9.63;80.09;95667.53;1048501;28;20039;-65
2021/05/09 01:52:01;;;;;;;4.67;2.50;;;;;;;9.61;79.74;95670.47;1048233;28;20107;-65
2021/05/09 01:52:31;;;;;;;5.37;2.70;;;;;;;9.62;80.26;95668.59;1048195;28;20012;-64
2021/05/09 01:53:02;;;;;;;6.57;2.60;;;;;;;9.61;80.33;95675.81;1048190;28;20085;-64
2021/05/09 01:53:33;;;;;;;6.00;2.70;;;;;;;9.60;80.26;95676.09;1048093;28;20453;-65
2021/05/09 01:54:03;;;;;;;6.13;2.70;;;;;;;9.60;80.36;95670.75;1048466;28;20028;-65
2021/05/09 01:54:34;;;;;;;5.30;2.43;;;;;;;9.62;80.02;95665.94;1048494;28;20019;-65
2021/05/09 01:55:06;;;;;;;4.10;2.40;;;;;;;9.60;80.10;95660.88;1048549;28;20158;-64
2021/05/09 01:55:37;;;;;;;5.60;2.25;;;;;;;9.60;80.24;95670.75;1048406;28;20368;-65
2021/05/09 01:56:07;;;;;;;4.53;2.30;;;;;;;9.61;80.16;95669.66;1048452;28;20086;-65
2021/05/09 01:56:37;;;;;;;5.80;2.60;;;;;;;9.62;79.71;95668.59;1048459;28;20066;-65
2021/05/09 01:57:08;;;;;;;5.00;2.47;;;;;;;9.59;80.04;95664.63;1048486;28;20062;-65
2021/05/09 01:57:38;;;;;;;5.17;2.63;;;;;;;9.57;80.16;95666.75;1048402;28;20024;-64
2021/05/09 01:58:09;;;;;;;6.03;2.80;;;;;;;9.52;80.30;95664.09;1048204;28;20025;-64
2021/05/09 01:58:39;;;;;;;4.93;2.53;;;;;;;9.55;80.25;95666.22;1048233;28;20516;-64
2021/05/09 01:59:10;;;;;;;6.17;2.50;;;;;;;9.56;80.22;95667.81;1048206;28;20028;-64
2021/05/09 01:59:40;;;;;;;5.90;2.53;;;;;;;9.54;80.10;95661.97;1048231;28;20599;-64
2021/05/09 02:00:12;;;;;;;7.83;2.80;;;;;;;9.55;80.23;95662.75;1048182;28;20106;-65
2021/05/09 02:00:43;;;;;;;6.45;2.47;;;;;;;9.57;80.39;95661.44;1048166;28;20013;-65
2021/05/09 02:01:13;;;;;;;3.70;2.00;;;;;;;9.56;80.18;95665.16;1048225;28;20489;-65
2021/05/09 02:01:43;;;;;;;5.40;2.70;;;;;;;9.55;80.37;95663.56;1048161;28;20020;-64
2021/05/09 02:02:14;;;;;;;4.33;2.43;;;;;;;9.57;80.30;95663.28;1048505;28;20050;-64
2021/05/09 02:02:45;;;;;;;7.60;2.50;;;;;;;9.47;80.35;95658.78;1048471;28;20078;-64
2021/05/09 02:03:15;;;;;;;4.20;2.35;;;;;;;9.46;80.49;95662.50;1048469;28;20647;-65
2021/05/09 02:03:46;;;;;;;4.43;2.20;;;;;;;9.44;80.83;95661.19;1048441;28;20012;-65
2021/05/09 02:04:16;;;;;;;4.10;2.10;;;;;;;9.44;80.48;95661.97;1048501;28;20025;-65
2021/05/09 02:04:46;;;;;;;4.93;2.13;;;;;;;9.45;80.56;95657.44;1048523;28;20021;-65
2021/05/09 02:05:17;;;;;;;5.10;2.67;;;;;;;9.45;80.61;95657.44;1048479;28;20032;-66
2021/05/09 02:05:47;;;;;;;4.63;2.60;;;;;;;9.31;80.85;95663.31;1048353;28;20016;-66
2021/05/09 02:06:18;;;;;;;5.73;2.50;;;;;;;9.35;81.06;95664.41;1048249;28;20461;-65
2021/05/09 02:06:48;;;;;;;4.80;2.37;;;;;;;9.29;81.33;95662.81;1048463;28;20496;-65
2021/05/09 02:07:19;;;;;;;6.03;2.50;;;;;;;9.30;81.36;95653.72;1048448;28;20481;-65
2021/05/09 02:07:49;;;;;;;6.70;2.53;;;;;;;9.30;81.66;95655.59;1048451;28;20017;-65
2021/05/09 02:08:22;;;;;;;4.63;2.50;;;;;;;9.32;81.54;95656.16;1048438;28;20031;-65
2021/05/09 02:08:52;;;;;;;4.38;2.30;;;;;;;9.29;81.78;95654.00;1048437;28;20477;-65
2021/05/09 02:09:22;;;;;;;4.33;2.50;;;;;;;9.30;81.37;95648.41;1048400;28;20027;-66
2021/05/09 02:09:53;;;;;;;4.50;2.70;;;;;;;9.33;81.04;95653.22;1048445;28;20015;-66
2021/05/09 02:10:23;;;;;;;5.37;2.90;;;;;;;9.34;81.21;95652.13;1048384;28;20028;-65
2021/05/09 02:10:54;;;;;;;4.37;2.50;;;;;;;9.29;81.27;95648.69;1048447;28;20019;-65
2021/05/09 02:11:24;;;;;;;5.00;2.50;;;;;;;9.30;81.57;95650.28;1048264;28;20082;-65
2021/05/09 02:11:54;;;;;;;5.07;2.73;;;;;;;9.29;81.53;95646.00;1048495;28;20058;-65
2021/05/09 02:12:25;;;;;;;4.07;2.50;;;;;;;9.22;81.42;95643.63;1048358;28;20078;-65
2021/05/09 02:12:55;;;;;;;3.60;2.20;;;;;;;9.19;81.45;95651.38;1048435;28;20059;-65
2021/05/09 02:13:26;;;;;;;4.63;2.30;;;;;;;9.17;81.66;95648.97;1048388;28;20078;-65
2021/05/09 02:13:56;;;;;;;3.70;2.20;;;;;;;9.16;81.54;95650.00;1048451;28;20017;-65
2021/05/09 02:14:27;;;;;;;5.73;2.70;;;;;;;9.15;82.23;95658.28;1048323;28;20473;-65
2021/05/09 02:14:57;;;;;;;6.50;2.50;;;;;;;9.18;81.55;95642.56;1048445;28;20017;-65
2021/05/09 02:15:27;;;;;;;3.53;2.17;;;;;;;9.19;81.78;95644.16;1048409;28;20082;-65
2021/05/09 02:15:58;;;;;;;3.87;2.67;;;;;;;9.20;81.55;95655.63;1048408;28;20078;-66
2021/05/09 02:16:28;;;;;;;4.77;2.90;;;;;;;9.18;81.67;95647.91;1048115;28;20060;-66
2021/05/09 02:16:59;;;;;;;5.23;2.47;;;;;;;9.17;81.80;95642.84;1043937;28;20020;-66
2021/05/09 02:17:29;;;;;;;5.00;2.33;;;;;;;9.17;82.02;95653.50;1044488;28;20017;-66
2021/05/09 02:18:00;;;;;;;4.27;2.57;;;;;;;9.18;81.82;95650.56;1044915;28;20052;-66
2021/05/09 02:18:30;;;;;;;4.40;2.40;;;;;;;9.15;82.13;95647.63;1044954;28;20453;-66
2021/05/09 02:19:01;;;;;;;5.23;2.77;;;;;;;9.14;81.92;95649.50;1049086;28;20099;-66
2021/05/09 02:19:31;;;;;;;7.37;2.50;;;;;;;9.11;82.01;95652.72;1048979;28;20473;-65
2021/05/09 02:20:06;;;;;;;5.87;2.83;;;;;;;9.02;82.23;95652.44;1049062;28;20016;-65
2021/05/09 02:20:36;;;;;;;6.57;2.72;;;;;;;9.05;82.35;95656.44;1049200;28;20028;-65
2021/05/09 02:21:06;;;;;;;4.87;2.40;;;;;;;9.06;82.39;95650.06;1049121;28;20380;-65
2021/05/09 02:21:37;;;;;;;5.43;2.63;;;;;;;9.05;82.62;95651.91;1049227;28;20482;-65
2021/05/09 02:22:07;;;;;;;6.10;2.70;;;;;;;9.03;82.48;95645.25;1048934;28;20021;-65
2021/05/09 02:22:38;;;;;;;5.80;2.63;;;;;;;9.03;82.81;95656.72;1048921;28;20024;-65
2021/05/09 02:23:08;;;;;;;6.00;2.60;;;;;;;9.01;82.68;95658.06;1048945;28;20013;-65
2021/05/09 02:23:39;;;;;;;5.33;2.80;;;;;;;9.01;82.63;95658.06;1044816;28;20021;-65
2021/05/09 02:24:09;;;;;;;4.33;2.50;;;;;;;9.01;82.76;95655.41;1049028;28;20021;-65
2021/05/09 02:24:41;;;;;;;4.60;2.60;;;;;;;9.05;82.46;95654.56;1048930;28;20111;-64
2021/05/09 02:25:11;;;;;;;3.47;2.42;;;;;;;9.05;82.64;95659.09;1048977;28;20031;-64
2021/05/09 02:25:42;;;;;;;4.63;2.50;;;;;;;9.01;82.92;95660.72;1049288;28;20393;-64